Time;durP1;ratioP1;P1;durP2;ratioP2;P2;SDS_P1;SDS_P2;PMS_P1;PMS_P2;Temp;Humidity;BMP_temperature;BMP_pressure;BME280_temperature;BME280_humidity;BME280_pressure;Samples;Min_cycle;Max_cycle;Signal;HPM_P1;HPM_P2
2024/02/21 00:01:50;;;;;;;8.85;7.18;;;;;;;5.32;100.00;93633.69;5067716;28;20051;-71
2024/02/21 00:04:17;;;;;;;9.75;7.40;;;;;;;5.42;100.00;93639.34;5076101;28;20044;-71
2024/02/21 00:06:45;;;;;;;8.68;7.03;;;;;;;5.35;100.00;93639.25;5070324;28;20056;-71
2024/02/21 00:09:13;;;;;;;9.05;6.60;;;;;;;5.19;100.00;93608.75;5071934;28;20045;-71
2024/02/21 00:11:40;;;;;;;7.65;6.18;;;;;;;5.38;100.00;93635.56;5072426;28;20059;-71
2024/02/21 00:14:07;;;;;;;8.40;6.70;;;;;;;5.56;100.00;93632.75;5074479;28;20064;-71
2024/02/21 00:16:34;;;;;;;11.05;7.45;;;;;;;5.68;100.00;93640.00;5076188;28;20048;-71
2024/02/21 00:19:01;;;;;;;9.75;7.22;;;;;;;5.61;100.00;93635.59;5072205;28;20050;-71
2024/02/21 00:21:28;;;;;;;10.52;7.78;;;;;;;5.72;100.00;93639.50;5071466;28;20513;-71
2024/02/21 00:23:54;;;;;;;9.60;7.43;;;;;;;5.62;100.00;93633.84;5067920;28;20055;-71
2024/02/21 00:26:23;;;;;;;10.50;7.57;;;;;;;5.74;100.00;93636.81;5068029;28;20059;-71
2024/02/21 00:28:50;;;;;;;11.13;8.90;;;;;;;5.67;100.00;93638.41;5069946;28;20075;-72
2024/02/21 00:31:17;;;;;;;9.95;8.10;;;;;;;5.69;100.00;93631.41;5070540;28;20048;-71
2024/02/21 00:33:43;;;;;;;11.30;9.13;;;;;;;5.78;100.00;93635.47;5073247;28;20533;-71
2024/02/21 00:36:10;;;;;;;9.63;7.82;;;;;;;5.84;100.00;93634.81;5082567;28;20051;-71
2024/02/21 00:38:37;;;;;;;10.15;6.75;;;;;;;5.87;100.00;93636.22;5073137;28;20408;-71
2024/02/21 00:41:04;;;;;;;11.30;7.80;;;;;;;5.87;100.00;93636.22;5071953;28;20052;-71
2024/02/21 00:43:33;;;;;;;36.00;14.63;;;;;;;5.91;100.00;93629.81;5074701;28;20043;-71
2024/02/21 00:46:00;;;;;;;29.73;13.30;;;;;;;5.97;100.00;93623.28;5075201;28;20203;-71
2024/02/21 00:48:27;;;;;;;30.88;13.40;;;;;;;6.03;100.00;93621.81;5072301;28;20041;-71
2024/02/21 00:50:54;;;;;;;29.80;13.65;;;;;;;6.12;100.00;93620.78;5082270;28;20044;-71
2024/02/21 00:53:21;;;;;;;17.65;10.55;;;;;;;6.07;100.00;93616.19;5077614;28;20059;-71
2024/02/21 00:55:48;;;;;;;19.48;10.90;;;;;;;6.13;100.00;93619.81;5071410;28;20056;-71
2024/02/21 00:58:14;;;;;;;27.77;14.57;;;;;;;6.17;100.00;93617.72;5076956;28;20074;-71
2024/02/21 01:00:43;;;;;;;24.08;11.85;;;;;;;6.14;100.00;93627.31;5072459;28;20051;-71
2024/02/21 01:03:10;;;;;;;28.55;13.90;;;;;;;6.06;100.00;93595.97;5075340;28;20036;-71
2024/02/21 01:05:37;;;;;;;31.83;15.48;;;;;;;6.20;100.00;93609.72;5073351;28;20051;-71
2024/02/21 01:08:04;;;;;;;18.83;11.07;;;;;;;6.02;100.00;93608.25;5076242;28;20106;-71
2024/02/21 01:10:31;;;;;;;15.35;8.60;;;;;;;5.85;100.00;93603.28;5073300;28;20541;-71
2024/02/21 01:12:58;;;;;;;12.65;8.45;;;;;;;5.78;100.00;93612.53;5074882;28;20048;-71
2024/02/21 01:15:25;;;;;;;14.63;10.18;;;;;;;5.77;100.00;93613.50;5073778;28;20438;-71
2024/02/21 01:17:54;;;;;;;12.45;9.05;;;;;;;5.87;100.00;93605.63;5074809;28;20048;-71
2024/02/21 01:20:21;;;;;;;11.02;8.13;;;;;;;5.80;100.00;93595.34;5072800;28;20133;-71
2024/02/21 01:22:48;;;;;;;9.50;7.20;;;;;;;5.75;100.00;93611.13;5071964;28;20481;-71
2024/02/21 01:25:15;;;;;;;9.77;7.22;;;;;;;5.55;100.00;93598.03;5074965;28;20076;-71
2024/02/21 01:27:42;;;;;;;9.60;7.15;;;;;;;5.64;100.00;93603.88;5072097;28;20059;-71
2024/02/21 01:30:11;;;;;;;48.80;31.27;;;;;;;5.53;100.00;93596.63;5068853;28;20055;-71
2024/02/21 01:32:38;;;;;;;25.27;17.45;;;;;;;5.67;100.00;93607.84;5072631;28;20048;-71
2024/02/21 01:35:07;;;;;;;11.73;7.78;;;;;;;5.45;100.00;93570.22;5073881;28;20049;-71
2024/02/21 01:37:34;;;;;;;9.07;7.40;;;;;;;5.67;100.00;93595.91;5071021;28;20048;-71
2024/02/21 01:40:02;;;;;;;11.80;8.35;;;;;;;5.78;100.00;93592.16;5078448;28;20139;-71
2024/02/21 01:42:29;;;;;;;10.88;7.57;;;;;;;5.85;100.00;93587.97;5075639;28;20508;-71
2024/02/21 01:44:56;;;;;;;10.88;7.47;;;;;;;5.95;100.00;93592.03;5069999;28;20074;-71
2024/02/21 01:47:24;;;;;;;9.80;7.28;;;;;;;5.96;100.00;93580.84;5079782;28;20044;-72
2024/02/21 01:49:51;;;;;;;9.68;6.72;;;;;;;5.99;100.00;93581.34;5069004;28;20135;-72
2024/02/21 01:52:19;;;;;;;9.73;7.57;;;;;;;6.08;100.00;93583.84;5071782;28;20052;-72
2024/02/21 01:54:49;;;;;;;9.35;6.78;;;;;;;6.15;100.00;93582.16;5078294;28;20055;-71
2024/02/21 01:57:16;;;;;;;9.13;6.93;;;;;;;6.23;100.00;93588.97;5073377;28;20094;-71
2024/02/21 01:59:43;;;;;;;9.52;6.95;;;;;;;6.23;100.00;93581.31;5071838;28;20059;-71
2024/02/21 02:02:10;;;;;;;10.10;6.85;;;;;;;6.28;100.00;93586.69;5076063;28;20523;-71
2024/02/21 02:04:39;;;;;;;9.15;7.50;;;;;;;6.24;100.00;93577.78;5069457;28;20045;-71
2024/02/21 02:07:08;;;;;;;11.95;8.25;;;;;;;6.12;100.00;93587.63;5073147;28;20054;-71
2024/02/21 02:09:36;;;;;;;41.83;23.48;;;;;;;5.83;100.00;93586.56;5071647;28;20056;-71
2024/02/21 02:12:03;;;;;;;27.45;16.65;;;;;;;5.83;100.00;93569.50;5072150;28;20059;-71
2024/02/21 02:14:30;;;;;;;25.80;15.32;;;;;;;5.98;100.00;93579.72;5072694;28;20128;-71
2024/02/21 02:16:57;;;;;;;26.98;15.35;;;;;;;6.00;100.00;93580.38;5069237;28;20134;-71
2024/02/21 02:19:24;;;;;;;22.92;14.10;;;;;;;6.06;100.00;93573.03;5073809;28;20413;-71
2024/02/21 02:21:56;;;;;;;24.15;14.27;;;;;;;6.10;100.00;93574.25;5071143;28;20051;-71
2024/02/21 02:24:25;;;;;;;27.63;15.23;;;;;;;6.16;100.00;93565.94;5077038;28;20047;-71
2024/02/21 02:26:52;;;;;;;39.03;22.05;;;;;;;6.22;100.00;93572.06;5074190;28;20052;-71
2024/02/21 02:29:19;;;;;;;25.85;15.73;;;;;;;6.25;100.00;93564.09;5076609;28;20476;-71
2024/02/21 02:31:46;;;;;;;29.42;16.67;;;;;;;6.25;100.00;93569.97;5072696;28;20048;-71
2024/02/21 02:34:13;;;;;;;35.58;18.55;;;;;;;6.28;100.00;93559.44;5072909;28;20040;-71
2024/02/21 02:36:40;;;;;;;25.75;16.75;;;;;;;6.30;100.00;93555.91;5069666;28;20058;-71
2024/02/21 02:39:08;;;;;;;23.42;14.18;;;;;;;6.33;100.00;93556.34;5069177;28;20501;-71
2024/02/21 02:41:37;;;;;;;22.10;13.27;;;;;;;6.34;100.00;93555.38;5072635;28;20044;-71
2024/02/21 02:44:04;;;;;;;19.65;12.52;;;;;;;6.33;100.00;93547.88;5070607;28;20062;-71
2024/02/21 02:46:31;;;;;;;15.57;10.55;;;;;;;6.33;100.00;93553.00;5073974;28;20055;-71
2024/02/21 02:48:58;;;;;;;15.15;10.32;;;;;;;6.37;100.00;93562.69;5071409;28;20067;-71
2024/02/21 02:51:25;;;;;;;14.57;10.77;;;;;;;6.40;100.00;93561.56;5068316;28;20126;-71
2024/02/21 02:53:52;;;;;;;15.23;10.25;;;;;;;6.40;100.00;93559.78;5073495;28;20052;-71
2024/02/21 02:56:19;;;;;;;14.90;10.68;;;;;;;6.36;100.00;93562.84;5068870;28;20045;-71
2024/02/21 02:58:47;;;;;;;16.75;10.80;;;;;;;6.41;100.00;93568.22;5071188;28;20051;-71
2024/02/21 03:01:15;;;;;;;15.23;11.18;;;;;;;6.30;100.00;93546.50;5080064;28;20052;-71
2024/02/21 03:03:42;;;;;;;17.05;11.73;;;;;;;6.44;100.00;93569.66;5071487;28;20054;-71
2024/02/21 03:06:08;;;;;;;16.83;12.05;;;;;;;6.40;100.00;93564.09;5071454;28;20415;-71
2024/02/21 03:08:35;;;;;;;16.92;11.77;;;;;;;6.40;100.00;93567.44;5072099;28;20044;-71
2024/02/21 03:11:02;;;;;;;17.40;12.68;;;;;;;6.44;100.00;93564.53;5068840;28;20170;-71
2024/02/21 03:13:29;;;;;;;19.15;12.48;;;;;;;6.26;100.00;93545.25;5075884;28;20154;-71
2024/02/21 03:15:58;;;;;;;18.17;12.10;;;;;;;6.45;100.00;93566.94;5068966;28;20041;-71
2024/02/21 03:18:24;;;;;;;20.10;12.57;;;;;;;6.50;100.00;93579.16;5070906;28;20054;-71
2024/02/21 03:20:51;;;;;;;18.65;12.63;;;;;;;6.51;100.00;93581.53;5074329;28;20055;-71
2024/02/21 03:23:18;;;;;;;21.55;13.38;;;;;;;6.53;100.00;93581.38;5077598;28;20049;-71
2024/02/21 03:25:45;;;;;;;23.58;15.65;;;;;;;6.49;100.00;93580.91;5073981;28;21005;-71
2024/02/21 03:28:12;;;;;;;30.00;17.10;;;;;;;6.48;100.00;93584.41;5071247;28;20041;-71
2024/02/21 03:30:39;;;;;;;23.73;14.80;;;;;;;6.49;100.00;93577.56;5070543;28;20431;-71
2024/02/21 03:33:08;;;;;;;23.77;14.90;;;;;;;6.51;100.00;93578.97;5079052;28;20050;-71
2024/02/21 03:35:35;;;;;;;22.38;14.73;;;;;;;6.53;100.00;93583.91;5069656;28;20044;-71
2024/02/21 03:38:01;;;;;;;16.15;11.07;;;;;;;6.51;100.00;93590.94;5067430;28;20053;-71
2024/02/21 03:40:28;;;;;;;16.73;11.43;;;;;;;6.47;100.00;93599.94;5080925;28;20049;-71
2024/02/21 03:42:55;;;;;;;17.35;11.93;;;;;;;6.47;100.00;93597.38;5068307;28;20049;-72
2024/02/21 03:45:22;;;;;;;15.93;11.57;;;;;;;6.46;100.00;93604.22;5068467;28;20412;-71
2024/02/21 03:47:49;;;;;;;17.80;11.90;;;;;;;6.47;100.00;93605.81;5079100;28;20090;-71
2024/02/21 03:50:18;;;;;;;16.80;11.07;;;;;;;6.47;100.00;93592.28;5068109;28;20071;-71
2024/02/21 03:52:44;;;;;;;15.15;10.55;;;;;;;6.43;100.00;93599.47;5074370;28;20044;-71
2024/02/21 03:55:11;;;;;;;17.08;11.45;;;;;;;6.42;100.00;93597.88;5076302;28;20050;-71
2024/02/21 03:57:38;;;;;;;14.70;10.80;;;;;;;6.41;100.00;93592.00;5069331;28;20134;-71
2024/02/21 04:00:10;;;;;;;16.17;11.25;;;;;;;6.44;100.00;93602.81;5072496;28;20058;-71
2024/02/21 04:02:37;;;;;;;19.40;12.27;;;;;;;6.44;100.00;93600.25;5068262;28;20497;-71
2024/02/21 04:05:05;;;;;;;14.68;11.35;;;;;;;6.43;100.00;93598.69;5077844;28;20054;-71
2024/02/21 04:07:34;;;;;;;15.43;11.25;;;;;;;6.41;100.00;93599.66;5077123;28;20052;-71
2024/02/21 04:10:01;;;;;;;14.98;11.32;;;;;;;6.43;100.00;93604.56;5068628;28;20079;-71
2024/02/21 04:12:28;;;;;;;16.70;11.30;;;;;;;6.39;100.00;93604.13;5072938;28;20072;-71
2024/02/21 04:14:54;;;;;;;20.38;13.68;;;;;;;6.37;100.00;93597.59;5075016;28;20054;-71
2024/02/21 04:17:21;;;;;;;22.17;15.30;;;;;;;6.40;100.00;93605.69;5070606;28;20127;-71
2024/02/21 04:19:48;;;;;;;21.42;15.10;;;;;;;6.36;100.00;93591.72;5076089;28;20078;-71
2024/02/21 04:22:15;;;;;;;22.90;15.15;;;;;;;6.36;100.00;93601.13;5076157;28;20052;-71
2024/02/21 04:24:44;;;;;;;96.55;50.97;;;;;;;6.40;100.00;93599.81;5069358;28;20041;-71
2024/02/21 04:27:10;;;;;;;73.03;39.75;;;;;;;6.41;100.00;93598.84;5070020;28;20515;-71
2024/02/21 04:29:37;;;;;;;71.28;39.17;;;;;;;6.19;100.00;93564.75;5072474;28;20052;-71
2024/02/21 04:32:05;;;;;;;49.58;29.40;;;;;;;6.37;100.00;93608.63;5070296;28;20040;-71
2024/02/21 04:34:32;;;;;;;51.92;29.77;;;;;;;6.20;100.00;93602.06;5067671;28;20083;-71
2024/02/21 04:36:59;;;;;;;45.15;26.30;;;;;;;6.22;100.00;93600.94;5072508;28;20048;-71
2024/02/21 04:39:26;;;;;;;34.30;20.88;;;;;;;6.21;100.00;93599.34;5080166;28;20067;-71
2024/02/21 04:41:54;;;;;;;33.97;21.42;;;;;;;5.96;100.00;93596.16;5066879;28;20053;-71
2024/02/21 04:44:22;;;;;;;30.95;20.83;;;;;;;5.53;100.00;93601.72;5067499;28;20518;-71
2024/02/21 04:46:49;;;;;;;28.73;20.33;;;;;;;5.21;100.00;93599.19;5068027;28;20049;-71
2024/02/21 04:49:16;;;;;;;32.60;21.33;;;;;;;5.38;100.00;93605.00;5068499;28;20044;-71
2024/02/21 04:51:43;;;;;;;27.98;20.10;;;;;;;5.34;100.00;93601.19;5067339;28;20048;-71
2024/02/21 04:54:10;;;;;;;23.45;18.10;;;;;;;4.94;100.00;93598.66;5074223;28;20080;-71
2024/02/21 04:56:37;;;;;;;25.88;18.90;;;;;;;5.13;100.00;93594.91;5076273;28;20044;-71
2024/02/21 04:59:05;;;;;;;24.80;18.40;;;;;;;5.19;100.00;93589.16;5070459;28;20058;-71
2024/02/21 05:01:32;;;;;;;27.33;18.30;;;;;;;5.20;100.00;93588.19;5076042;28;20060;-71
2024/02/21 05:03:59;;;;;;;23.98;17.67;;;;;;;5.15;100.00;93575.19;5077911;28;20046;-71
2024/02/21 05:06:26;;;;;;;23.98;15.85;;;;;;;4.83;100.00;93526.00;5070327;28;20066;-72
2024/02/21 05:08:52;;;;;;;23.10;16.13;;;;;;;5.18;100.00;93596.94;5075384;28;20088;-71
2024/02/21 05:11:19;;;;;;;22.13;14.98;;;;;;;5.10;100.00;93592.72;5073547;28;20053;-71
2024/02/21 05:13:46;;;;;;;24.80;20.63;;;;;;;4.74;100.00;93610.97;5074700;28;20086;-71
2024/02/21 05:16:15;;;;;;;20.33;16.10;;;;;;;4.81;100.00;93599.16;5070899;28;20047;-71
2024/02/21 05:18:42;;;;;;;26.23;19.67;;;;;;;4.77;100.00;93601.25;5075508;28;20037;-71
2024/02/21 05:21:09;;;;;;;65.68;38.55;;;;;;;4.76;100.00;93603.94;5073215;28;20412;-71
2024/02/21 05:23:36;;;;;;;71.55;39.75;;;;;;;4.70;100.00;93605.41;5074560;28;20134;-71
2024/02/21 05:26:03;;;;;;;56.65;36.80;;;;;;;4.70;100.00;93609.69;5077494;28;20123;-71
2024/02/21 05:28:30;;;;;;;52.20;34.47;;;;;;;4.65;100.00;93608.47;5072982;28;20497;-71
2024/02/21 05:30:57;;;;;;;53.33;31.95;;;;;;;4.51;100.00;93609.91;5073240;28;20044;-71
2024/02/21 05:33:25;;;;;;;46.60;28.02;;;;;;;4.43;100.00;93614.22;5076935;28;20127;-71
2024/02/21 05:35:52;;;;;;;46.10;28.98;;;;;;;4.36;100.00;93606.44;5077316;28;20056;-71
2024/02/21 05:38:19;;;;;;;46.10;28.75;;;;;;;4.34;100.00;93593.06;5076082;28;20055;-71
2024/02/21 05:40:46;;;;;;;44.95;29.65;;;;;;;4.44;100.00;93605.63;5075433;28;20063;-71
2024/02/21 05:43:13;;;;;;;45.40;30.23;;;;;;;4.47;100.00;93610.38;5077791;28;20044;-71
2024/02/21 05:45:40;;;;;;;36.45;26.27;;;;;;;4.48;100.00;93605.13;5076079;28;20055;-71
2024/02/21 05:48:07;;;;;;;30.42;21.15;;;;;;;4.51;100.00;93612.47;5072810;28;20638;-72
2024/02/21 05:50:36;;;;;;;27.50;18.05;;;;;;;4.55;100.00;93618.78;5071762;28;20054;-71
2024/02/21 05:53:03;;;;;;;20.92;14.77;;;;;;;4.52;100.00;93614.03;5076159;28;20048;-71
2024/02/21 05:55:30;;;;;;;20.38;13.70;;;;;;;4.58;100.00;93619.44;5072355;28;20052;-71
2024/02/21 05:57:57;;;;;;;17.55;13.10;;;;;;;4.59;100.00;93626.13;5070595;28;20866;-71
2024/02/21 06:00:24;;;;;;;21.08;14.25;;;;;;;4.59;100.00;93632.00;5078412;28;20046;-71
2024/02/21 06:02:51;;;;;;;17.45;14.00;;;;;;;4.58;100.00;93638.03;5077501;28;20052;-71
2024/02/21 06:05:18;;;;;;;18.42;13.85;;;;;;;4.61;100.00;93642.81;5073896;28;20778;-71
2024/02/21 06:07:46;;;;;;;27.42;17.67;;;;;;;4.65;100.00;93640.72;5074799;28;20056;-71
2024/02/21 06:10:13;;;;;;;26.42;19.63;;;;;;;4.61;100.00;93632.63;5073095;28;20048;-71
2024/02/21 06:12:40;;;;;;;36.38;22.88;;;;;;;4.62;100.00;93629.13;5072332;28;20052;-71
2024/02/21 06:15:08;;;;;;;32.90;21.48;;;;;;;4.66;100.00;93645.66;5072917;28;20052;-71
2024/02/21 06:17:35;;;;;;;29.27;20.98;;;;;;;4.63;100.00;93648.50;5074050;28;20902;-71
2024/02/21 06:20:02;;;;;;;27.27;19.85;;;;;;;4.66;100.00;93653.28;5071623;28;20073;-71
2024/02/21 06:22:29;;;;;;;29.10;19.90;;;;;;;4.67;100.00;93643.91;5075597;28;20055;-71
2024/02/21 06:24:57;;;;;;;27.88;19.58;;;;;;;4.71;100.00;93650.25;5074110;28;20047;-71
2024/02/21 06:27:24;;;;;;;35.15;21.10;;;;;;;4.74;100.00;93649.13;5070184;28;20476;-71
2024/02/21 06:29:51;;;;;;;31.45;21.38;;;;;;;4.87;100.00;93667.25;5069662;28;20052;-71
2024/02/21 06:32:18;;;;;;;28.52;21.02;;;;;;;4.92;100.00;93657.34;5075055;28;20050;-70
2024/02/21 06:34:45;;;;;;;33.08;22.23;;;;;;;4.98;100.00;93662.75;5072574;28;20098;-72
2024/02/21 06:37:12;;;;;;;36.97;24.85;;;;;;;5.01;100.00;93667.53;5070471;28;20044;-70
2024/02/21 06:39:40;;;;;;;39.63;26.85;;;;;;;5.13;100.00;93670.53;5073814;28;20052;-71
2024/02/21 06:42:09;;;;;;;37.22;25.60;;;;;;;5.23;100.00;93673.66;5074135;28;20127;-71
2024/02/21 06:44:40;;;;;;;43.58;27.27;;;;;;;5.34;100.00;93678.38;5080144;28;20047;-71
2024/02/21 06:47:07;;;;;;;39.67;27.63;;;;;;;5.43;100.00;93675.81;5080141;28;20044;-71
2024/02/21 06:49:34;;;;;;;39.90;26.58;;;;;;;5.50;100.00;93679.28;5069647;28;20060;-71
2024/02/21 06:52:01;;;;;;;34.95;22.63;;;;;;;5.57;100.00;93677.69;5073546;28;20519;-71
2024/02/21 06:54:28;;;;;;;33.35;23.48;;;;;;;5.55;100.00;93674.47;5071409;28;20039;-71
2024/02/21 06:56:55;;;;;;;37.97;25.77;;;;;;;5.58;100.00;93669.06;5071382;28;20048;-71
2024/02/21 06:59:23;;;;;;;36.05;23.45;;;;;;;5.57;100.00;93662.38;5076612;28;20055;-71
2024/02/21 07:01:52;;;;;;;39.13;26.10;;;;;;;5.73;100.00;93673.44;5072616;28;20129;-71
2024/02/21 07:04:19;;;;;;;44.35;26.85;;;;;;;5.83;100.00;93679.13;5070058;28;20052;-71
2024/02/21 07:06:47;;;;;;;37.67;26.92;;;;;;;5.91;100.00;93672.38;5070375;28;20615;-71
2024/02/21 07:09:14;;;;;;;43.63;27.92;;;;;;;6.00;100.00;93673.91;5071110;28;20048;-71
2024/02/21 07:11:40;;;;;;;45.95;27.70;;;;;;;6.04;100.00;93679.50;5073180;28;20094;-71
2024/02/21 07:14:07;;;;;;;40.78;26.35;;;;;;;6.11;100.00;93676.09;5071543;28;20047;-71
2024/02/21 07:16:36;;;;;;;43.33;26.10;;;;;;;6.23;100.00;93681.59;5068848;28;20055;-71
2024/02/21 07:19:03;;;;;;;56.10;29.92;;;;;;;6.15;100.00;93656.13;5074547;28;20411;-71
2024/02/21 07:21:30;;;;;;;44.85;29.10;;;;;;;6.40;100.00;93687.34;5069835;28;20074;-71
2024/02/21 07:23:57;;;;;;;45.47;28.73;;;;;;;6.43;100.00;93678.56;5073849;28;20047;-71
2024/02/21 07:26:24;;;;;;;41.55;25.75;;;;;;;6.57;100.00;93691.56;5073632;28;20416;-71
2024/02/21 07:28:51;;;;;;;41.67;24.88;;;;;;;6.55;100.00;93682.31;5069299;28;20051;-71
2024/02/21 07:31:18;;;;;;;36.15;21.05;;;;;;;6.70;100.00;93688.41;5074469;28;20048;-71
2024/02/21 07:33:46;;;;;;;31.38;19.63;;;;;;;6.72;100.00;93683.91;5074528;28;20044;-71
2024/02/21 07:36:13;;;;;;;30.60;18.85;;;;;;;6.81;100.00;93696.44;5068319;28;20051;-71
2024/02/21 07:38:40;;;;;;;29.55;18.02;;;;;;;6.88;100.00;93688.06;5072311;28;20045;-71
2024/02/21 07:41:07;;;;;;;28.65;17.45;;;;;;;6.90;100.00;93691.25;5068524;28;20045;-71
2024/02/21 07:43:34;;;;;;;31.20;18.27;;;;;;;6.95;100.00;93691.53;5081385;28;20413;-71
2024/02/21 07:46:01;;;;;;;26.58;16.15;;;;;;;7.00;100.00;93691.81;5070357;28;20048;-71
2024/02/21 07:48:28;;;;;;;28.63;17.90;;;;;;;7.07;99.15;93694.44;5072107;28;20040;-71
2024/02/21 07:50:56;;;;;;;27.63;17.38;;;;;;;7.16;97.21;93693.38;5073515;28;20040;-71
2024/02/21 07:53:23;;;;;;;25.38;17.20;;;;;;;7.14;96.88;93685.09;5072384;28;20496;-71
2024/02/21 07:55:50;;;;;;;29.90;18.55;;;;;;;7.26;95.61;93700.78;5072219;28;20423;-71
2024/02/21 07:58:17;;;;;;;20.98;13.05;;;;;;;7.26;95.14;93689.78;5068134;28;20055;-71
2024/02/21 08:00:44;;;;;;;21.38;12.75;;;;;;;7.29;94.54;93695.31;5068316;28;20056;-71
2024/02/21 08:03:11;;;;;;;20.73;12.93;;;;;;;7.22;93.72;93694.44;5076766;28;20139;-71
2024/02/21 08:05:38;;;;;;;18.27;10.80;;;;;;;7.14;93.03;93704.75;5080029;28;20044;-71
2024/02/21 08:08:08;;;;;;;17.83;11.75;;;;;;;7.22;94.22;93697.78;5073178;28;20062;-71
2024/02/21 08:10:35;;;;;;;19.55;13.30;;;;;;;7.31;95.07;93690.81;5076232;28;20054;-71
2024/02/21 08:13:02;;;;;;;21.70;14.00;;;;;;;7.22;94.86;93656.91;5079814;28;20045;-71
2024/02/21 08:15:29;;;;;;;22.60;14.45;;;;;;;7.53;95.15;93679.84;5068764;28;20369;-71
2024/02/21 08:17:59;;;;;;;18.88;14.00;;;;;;;7.69;93.47;93686.56;5070242;28;20071;-71
2024/02/21 08:20:26;;;;;;;26.27;14.07;;;;;;;7.84;92.96;93686.50;5075378;28;20055;-71
2024/02/21 08:22:53;;;;;;;21.38;13.93;;;;;;;7.96;92.63;93684.28;5070063;28;20048;-71
2024/02/21 08:25:21;;;;;;;20.15;12.95;;;;;;;8.09;90.14;93681.03;5070638;28;20052;-71
2024/02/21 08:27:48;;;;;;;22.25;12.85;;;;;;;8.21;89.24;93687.28;5071278;28;20131;-71
2024/02/21 08:30:16;;;;;;;23.75;15.18;;;;;;;8.36;89.28;93678.72;5067584;28;20050;-71
2024/02/21 08:32:43;;;;;;;27.15;16.17;;;;;;;8.41;88.06;93677.22;5070554;28;20040;-71
2024/02/21 08:35:10;;;;;;;24.15;13.73;;;;;;;8.52;87.22;93681.06;5069155;28;20419;-71
2024/02/21 08:37:37;;;;;;;20.27;13.70;;;;;;;8.67;86.03;93683.53;5074546;28;20404;-71
2024/02/21 08:40:08;;;;;;;21.73;12.98;;;;;;;8.76;85.22;93684.22;5073471;28;20041;-71
2024/02/21 08:42:36;;;;;;;18.00;12.43;;;;;;;8.84;84.28;93685.81;5074448;28;20088;-71
2024/02/21 08:45:03;;;;;;;19.85;13.68;;;;;;;8.84;84.49;93674.78;5074377;28;20624;-71
2024/02/21 08:47:30;;;;;;;20.95;13.55;;;;;;;9.07;83.76;93692.47;5074658;28;20038;-71
2024/02/21 08:49:57;;;;;;;23.17;13.93;;;;;;;9.11;82.70;93691.13;5066595;28;20049;-71
2024/02/21 08:52:24;;;;;;;19.70;12.90;;;;;;;9.26;82.67;93685.88;5067217;28;20419;-71
2024/02/21 08:54:53;;;;;;;21.63;13.45;;;;;;;9.36;80.64;93690.66;5075415;28;20044;-71
2024/02/21 08:57:20;;;;;;;20.63;13.40;;;;;;;9.55;81.17;93689.19;5076225;28;20057;-71
2024/02/21 08:59:48;;;;;;;21.75;14.73;;;;;;;9.69;80.97;93690.03;5075183;28;20040;-71
2024/02/21 09:02:16;;;;;;;17.30;11.65;;;;;;;9.57;77.46;93664.13;5073084;28;20055;-71
2024/02/21 09:04:43;;;;;;;18.15;11.77;;;;;;;9.60;74.04;93696.28;5074106;28;20438;-71
2024/02/21 09:07:10;;;;;;;18.33;12.32;;;;;;;9.37;77.23;93679.44;5079939;28;20044;-71
2024/02/21 09:09:38;;;;;;;19.42;12.20;;;;;;;9.58;79.12;93705.97;5074370;28;20054;-71
2024/02/21 09:12:06;;;;;;;21.00;13.20;;;;;;;9.54;77.84;93694.50;5075706;28;20054;-71
2024/02/21 09:14:33;;;;;;;22.65;12.35;;;;;;;8.76;79.29;93701.34;5071775;28;20045;-71
2024/02/21 09:17:02;;;;;;;20.27;12.43;;;;;;;8.56;81.13;93691.72;5075163;28;20376;-71
2024/02/21 09:19:29;;;;;;;20.05;13.27;;;;;;;8.62;80.13;93693.56;5069923;28;20040;-70
2024/02/21 09:21:56;;;;;;;23.08;13.82;;;;;;;8.73;81.52;93686.31;5075975;28;20489;-71
2024/02/21 09:24:23;;;;;;;25.10;17.98;;;;;;;8.90;79.38;93691.97;5075968;28;20044;-71
2024/02/21 09:26:50;;;;;;;16.92;11.25;;;;;;;9.02;78.29;93682.78;5079194;28;20048;-71
2024/02/21 09:29:17;;;;;;;17.35;12.57;;;;;;;9.30;81.18;93684.50;5070365;28;20055;-71
2024/02/21 09:31:44;;;;;;;19.05;12.25;;;;;;;9.04;77.64;93688.53;5074203;28;20580;-71
2024/02/21 09:34:12;;;;;;;20.27;13.18;;;;;;;9.18;80.30;93689.41;5073667;28;20055;-71
2024/02/21 09:36:40;;;;;;;19.98;12.65;;;;;;;9.51;81.05;93685.41;5070508;28;20050;-71
2024/02/21 09:39:07;;;;;;;20.10;13.00;;;;;;;9.67;78.92;93683.50;5072896;28;20501;-71
2024/02/21 09:41:39;;;;;;;17.45;12.85;;;;;;;9.95;77.28;93685.94;5072207;28;20489;-71
2024/02/21 09:44:07;;;;;;;22.98;14.40;;;;;;;10.07;76.71;93691.31;5073949;28;20055;-71
2024/02/21 09:46:43;;;;;;;18.23;12.13;;;;;;;10.22;76.65;93677.50;5071990;28;20054;-71
2024/02/21 09:49:15;;;;;;;;;;;;;;;10.48;71.87;93693.97;5071582;28;20048;-71
2024/02/21 09:51:44;;;;;;;16.23;11.90;;;;;;;10.45;70.96;93697.72;5079827;28;19924;-71
2024/02/21 09:54:11;;;;;;;18.08;11.68;;;;;;;10.58;74.42;93696.94;5075616;28;20051;-71
2024/02/21 09:56:39;;;;;;;17.02;12.35;;;;;;;10.81;74.38;93693.97;5076212;28;20411;-71
2024/02/21 09:59:06;;;;;;;17.67;11.75;;;;;;;11.04;74.06;93697.91;5071969;28;20518;-71
2024/02/21 10:01:33;;;;;;;19.10;12.15;;;;;;;10.34;70.54;93701.63;5071029;28;20078;-71
2024/02/21 10:04:00;;;;;;;16.92;11.52;;;;;;;9.74;73.03;93700.50;5078760;28;20075;-71
2024/02/21 10:06:28;;;;;;;18.38;12.27;;;;;;;10.13;74.49;93695.66;5076984;28;20051;-71
2024/02/21 10:08:55;;;;;;;14.82;11.00;;;;;;;9.28;73.69;93699.31;5073333;28;20441;-71
2024/02/21 10:11:25;;;;;;;17.13;11.65;;;;;;;9.85;75.78;93691.44;5070983;28;20059;-71
2024/02/21 10:13:52;;;;;;;14.35;11.02;;;;;;;10.22;71.67;93690.34;5072492;28;20048;-71
2024/02/21 10:16:19;;;;;;;15.18;11.43;;;;;;;10.36;74.50;93684.25;5070046;28;20074;-71
2024/02/21 10:18:46;;;;;;;16.73;11.65;;;;;;;10.27;70.10;93667.44;5071812;28;20084;-71
2024/02/21 10:21:13;;;;;;;16.77;10.93;;;;;;;10.36;69.58;93668.84;5072775;28;20041;-71
2024/02/21 10:23:49;;;;;;;13.82;9.55;;;;;;;10.75;70.35;93669.06;5074691;28;20480;-71
2024/02/21 10:26:17;;;;;;;12.23;9.45;;;;;;;10.78;66.97;93666.09;5069544;28;20048;-71
2024/02/21 10:28:44;;;;;;;10.75;8.75;;;;;;;10.68;65.92;93658.78;5072565;28;20052;-71
2024/02/21 10:31:12;;;;;;;14.95;10.07;;;;;;;10.92;70.13;93650.69;5070188;28;20054;-71
2024/02/21 10:33:39;;;;;;;12.55;9.07;;;;;;;10.59;66.23;93651.50;5074100;28;20051;-71
2024/02/21 10:36:10;;;;;;;11.90;8.63;;;;;;;10.53;65.57;93641.03;5069333;28;20415;-71
2024/02/21 10:38:38;;;;;;;12.60;9.57;;;;;;;10.76;65.32;93642.38;5078608;28;20051;-71
2024/02/21 10:41:07;;;;;;;13.80;10.23;;;;;;;11.07;69.65;93632.44;5073221;28;20040;-71
2024/02/21 10:43:40;;;;;;;12.85;9.50;;;;;;;11.41;70.72;93619.47;5074963;28;20056;-71
2024/02/21 10:46:08;;;;;;;12.10;9.02;;;;;;;11.68;66.47;93619.34;5074645;28;20052;-71
2024/02/21 10:48:42;;;;;;;11.60;8.60;;;;;;;12.00;66.92;93612.41;5070510;28;20393;-71
2024/02/21 10:51:16;;;;;;;13.65;9.70;;;;;;;11.67;63.13;93608.25;5072515;28;20047;-71
2024/02/21 10:53:47;;;;;;;9.55;7.55;;;;;;;11.60;62.79;93617.78;5074148;28;20075;-71
2024/02/21 10:56:24;;;;;;;10.93;8.27;;;;;;;11.92;62.99;93610.09;5077683;28;20054;-71
2024/02/21 10:58:53;;;;;;;9.68;7.25;;;;;;;11.90;61.61;93607.72;5069204;28;20044;-71
2024/02/21 11:01:20;;;;;;;11.65;7.30;;;;;;;12.21;63.16;93599.47;5073332;28;20101;-71
2024/02/21 11:03:49;;;;;;;11.48;6.97;;;;;;;12.37;62.69;93605.88;5069388;28;20118;-71
2024/02/21 11:06:18;;;;;;;11.38;6.43;;;;;;;12.63;60.86;93604.06;5079088;28;20048;-71
2024/02/21 11:08:45;;;;;;;12.07;6.70;;;;;;;12.64;60.15;93601.25;5070453;28;20056;-71
2024/02/21 11:11:17;;;;;;;12.80;7.13;;;;;;;11.40;58.75;93605.84;5070035;28;20499;-71
2024/02/21 11:13:45;;;;;;;11.18;7.05;;;;;;;11.42;62.45;93603.03;5072579;28;20455;-71
2024/02/21 11:16:22;;;;;;;8.68;5.72;;;;;;;10.91;59.01;93611.31;5067932;28;20127;-71
2024/02/21 11:18:49;;;;;;;10.32;6.75;;;;;;;11.19;60.81;93596.59;5071654;28;20064;-71
2024/02/21 11:21:16;;;;;;;15.50;7.38;;;;;;;11.33;64.02;93600.72;5069364;28;20452;-71
2024/02/21 11:23:43;;;;;;;8.60;6.03;;;;;;;11.52;61.94;93597.47;5068831;28;20052;-71